sensor_id;sensor_type;location;lat;lon;timestamp;temperature;humidity
76785;SHT30;66893;44.316;0.092;2023-04-25T00:00:24;20.34;55.60
76785;SHT30;66893;44.316;0.092;2023-04-25T00:02:50;20.34;55.56
76785;SHT30;66893;44.316;0.092;2023-04-25T00:05:15;20.36;55.66
76785;SHT30;66893;44.316;0.092;2023-04-25T00:07:41;20.33;55.66
76785;SHT30;66893;44.316;0.092;2023-04-25T00:10:10;20.34;55.67
76785;SHT30;66893;44.316;0.092;2023-04-25T00:12:39;20.33;55.67
76785;SHT30;66893;44.316;0.092;2023-04-25T00:15:05;20.32;55.66
76785;SHT30;66893;44.316;0.092;2023-04-25T00:17:31;20.33;55.68
76785;SHT30;66893;44.316;0.092;2023-04-25T00:19:56;20.30;55.65
76785;SHT30;66893;44.316;0.092;2023-04-25T00:22:23;20.32;55.67
76785;SHT30;66893;44.316;0.092;2023-04-25T00:24:49;20.32;55.66
76785;SHT30;66893;44.316;0.092;2023-04-25T00:27:15;20.30;55.69
76785;SHT30;66893;44.316;0.092;2023-04-25T00:29:40;20.27;55.69
76785;SHT30;66893;44.316;0.092;2023-04-25T00:32:06;20.27;55.73
76785;SHT30;66893;44.316;0.092;2023-04-25T00:34:31;20.24;55.72
76785;SHT30;66893;44.316;0.092;2023-04-25T00:36:57;20.24;55.76
76785;SHT30;66893;44.316;0.092;2023-04-25T00:39:22;20.23;55.72
76785;SHT30;66893;44.316;0.092;2023-04-25T00:41:48;20.22;55.77
76785;SHT30;66893;44.316;0.092;2023-04-25T00:44:15;20.19;55.76
76785;SHT30;66893;44.316;0.092;2023-04-25T00:46:42;20.20;55.79
76785;SHT30;66893;44.316;0.092;2023-04-25T00:49:07;20.19;55.80
76785;SHT30;66893;44.316;0.092;2023-04-25T00:51:33;20.19;55.82
76785;SHT30;66893;44.316;0.092;2023-04-25T00:53:59;20.16;55.83
76785;SHT30;66893;44.316;0.092;2023-04-25T00:56:25;20.15;55.88
76785;SHT30;66893;44.316;0.092;2023-04-25T00:58:53;20.16;55.87
76785;SHT30;66893;44.316;0.092;2023-04-25T01:01:22;20.13;55.89
76785;SHT30;66893;44.316;0.092;2023-04-25T01:03:49;20.13;55.93
76785;SHT30;66893;44.316;0.092;2023-04-25T01:06:16;20.12;55.87
76785;SHT30;66893;44.316;0.092;2023-04-25T01:08:41;20.09;55.91
76785;SHT30;66893;44.316;0.092;2023-04-25T01:11:07;20.10;55.90
76785;SHT30;66893;44.316;0.092;2023-04-25T01:13:33;20.09;55.92
76785;SHT30;66893;44.316;0.092;2023-04-25T01:15:59;20.08;55.91
76785;SHT30;66893;44.316;0.092;2023-04-25T01:18:25;20.06;55.96
76785;SHT30;66893;44.316;0.092;2023-04-25T01:20:51;20.09;55.96
76785;SHT30;66893;44.316;0.092;2023-04-25T01:23:20;20.05;56.01
76785;SHT30;66893;44.316;0.092;2023-04-25T01:25:47;20.06;56.05
76785;SHT30;66893;44.316;0.092;2023-04-25T01:28:13;20.06;56.03
76785;SHT30;66893;44.316;0.092;2023-04-25T01:30:39;20.05;56.08
76785;SHT30;66893;44.316;0.092;2023-04-25T01:33:04;20.04;56.10
76785;SHT30;66893;44.316;0.092;2023-04-25T01:35:31;20.02;56.15
76785;SHT30;66893;44.316;0.092;2023-04-25T01:37:57;20.02;56.15
76785;SHT30;66893;44.316;0.092;2023-04-25T01:40:23;20.02;56.13
76785;SHT30;66893;44.316;0.092;2023-04-25T01:42:50;20.02;56.17
76785;SHT30;66893;44.316;0.092;2023-04-25T01:45:16;19.99;56.16
76785;SHT30;66893;44.316;0.092;2023-04-25T01:47:41;19.99;56.18
76785;SHT30;66893;44.316;0.092;2023-04-25T01:50:09;19.99;56.22
76785;SHT30;66893;44.316;0.092;2023-04-25T01:52:34;19.99;56.13
76785;SHT30;66893;44.316;0.092;2023-04-25T01:55:01;19.99;56.20
76785;SHT30;66893;44.316;0.092;2023-04-25T01:57:26;19.92;56.17
76785;SHT30;66893;44.316;0.092;2023-04-25T01:59:59;19.96;56.15
76785;SHT30;66893;44.316;0.092;2023-04-25T02:02:25;19.96;56.17
76785;SHT30;66893;44.316;0.092;2023-04-25T02:04:51;19.96;56.18
76785;SHT30;66893;44.316;0.092;2023-04-25T02:07:16;19.92;56.13
76785;SHT30;66893;44.316;0.092;2023-04-25T02:09:42;19.95;56.15
76785;SHT30;66893;44.316;0.092;2023-04-25T02:12:09;19.92;56.18
76785;SHT30;66893;44.316;0.092;2023-04-25T02:14:35;19.90;56.18
76785;SHT30;66893;44.316;0.092;2023-04-25T02:17:00;19.92;56.15
76785;SHT30;66893;44.316;0.092;2023-04-25T02:19:26;19.90;56.17
76785;SHT30;66893;44.316;0.092;2023-04-25T02:21:51;19.92;56.21
76785;SHT30;66893;44.316;0.092;2023-04-25T02:24:17;19.88;56.17
76785;SHT30;66893;44.316;0.092;2023-04-25T02:26:45;19.85;56.23
76785;SHT30;66893;44.316;0.092;2023-04-25T02:29:12;19.88;56.25
76785;SHT30;66893;44.316;0.092;2023-04-25T02:31:37;19.86;56.22
76785;SHT30;66893;44.316;0.092;2023-04-25T02:34:03;19.88;56.24
76785;SHT30;66893;44.316;0.092;2023-04-25T02:36:29;19.85;56.19
76785;SHT30;66893;44.316;0.092;2023-04-25T02:38:57;19.85;56.25
76785;SHT30;66893;44.316;0.092;2023-04-25T02:41:22;19.88;56.28
76785;SHT30;66893;44.316;0.092;2023-04-25T02:43:48;19.83;56.22
76785;SHT30;66893;44.316;0.092;2023-04-25T02:46:14;19.83;56.23
76785;SHT30;66893;44.316;0.092;2023-04-25T02:48:39;19.82;56.26
76785;SHT30;66893;44.316;0.092;2023-04-25T02:51:05;19.79;56.29
76785;SHT30;66893;44.316;0.092;2023-04-25T02:53:30;19.81;56.21
76785;SHT30;66893;44.316;0.092;2023-04-25T02:55:56;19.79;56.28
76785;SHT30;66893;44.316;0.092;2023-04-25T02:58:23;19.81;56.25
76785;SHT30;66893;44.316;0.092;2023-04-25T03:00:48;19.77;56.29
76785;SHT30;66893;44.316;0.092;2023-04-25T03:03:14;19.78;56.32
76785;SHT30;66893;44.316;0.092;2023-04-25T03:05:43;19.77;56.32
76785;SHT30;66893;44.316;0.092;2023-04-25T03:08:08;19.78;56.35
76785;SHT30;66893;44.316;0.092;2023-04-25T03:10:34;19.77;56.33
76785;SHT30;66893;44.316;0.092;2023-04-25T03:12:59;19.75;56.40
76785;SHT30;66893;44.316;0.092;2023-04-25T03:15:24;19.71;56.34
76785;SHT30;66893;44.316;0.092;2023-04-25T03:17:50;19.75;56.40
76785;SHT30;66893;44.316;0.092;2023-04-25T03:20:15;19.72;56.40
76785;SHT30;66893;44.316;0.092;2023-04-25T03:22:41;19.74;56.34
76785;SHT30;66893;44.316;0.092;2023-04-25T03:25:07;19.74;56.40
76785;SHT30;66893;44.316;0.092;2023-04-25T03:27:33;19.71;56.41
76785;SHT30;66893;44.316;0.092;2023-04-25T03:29:58;19.69;56.47
76785;SHT30;66893;44.316;0.092;2023-04-25T03:32:24;19.69;56.48
76785;SHT30;66893;44.316;0.092;2023-04-25T03:34:49;19.69;56.44
76785;SHT30;66893;44.316;0.092;2023-04-25T03:37:15;19.68;56.44
76785;SHT30;66893;44.316;0.092;2023-04-25T03:39:40;19.69;56.44
76785;SHT30;66893;44.316;0.092;2023-04-25T03:42:06;19.67;56.48
76785;SHT30;66893;44.316;0.092;2023-04-25T03:44:31;19.64;56.47
76785;SHT30;66893;44.316;0.092;2023-04-25T03:46:56;19.64;56.50
76785;SHT30;66893;44.316;0.092;2023-04-25T03:49:22;19.64;56.57
76785;SHT30;66893;44.316;0.092;2023-04-25T03:51:50;19.64;56.53
76785;SHT30;66893;44.316;0.092;2023-04-25T03:54:16;19.64;56.57
76785;SHT30;66893;44.316;0.092;2023-04-25T03:56:41;19.62;56.53
76785;SHT30;66893;44.316;0.092;2023-04-25T03:59:07;19.62;56.58
76785;SHT30;66893;44.316;0.092;2023-04-25T04:01:33;19.61;56.61
76785;SHT30;66893;44.316;0.092;2023-04-25T04:03:58;19.61;56.57
76785;SHT30;66893;44.316;0.092;2023-04-25T04:06:23;19.60;56.64
76785;SHT30;66893;44.316;0.092;2023-04-25T04:08:49;19.61;56.56
76785;SHT30;66893;44.316;0.092;2023-04-25T04:11:14;19.60;56.64
76785;SHT30;66893;44.316;0.092;2023-04-25T04:13:40;19.57;56.61
76785;SHT30;66893;44.316;0.092;2023-04-25T04:16:05;19.58;56.66
76785;SHT30;66893;44.316;0.092;2023-04-25T04:18:31;19.58;56.64
76785;SHT30;66893;44.316;0.092;2023-04-25T04:20:58;19.55;56.66
76785;SHT30;66893;44.316;0.092;2023-04-25T04:23:23;19.57;56.69
76785;SHT30;66893;44.316;0.092;2023-04-25T04:25:49;19.54;56.65
76785;SHT30;66893;44.316;0.092;2023-04-25T04:28:15;19.53;56.70
76785;SHT30;66893;44.316;0.092;2023-04-25T04:30:41;19.54;56.70
76785;SHT30;66893;44.316;0.092;2023-04-25T04:33:08;19.53;56.74
76785;SHT30;66893;44.316;0.092;2023-04-25T04:35:34;19.54;56.74
76785;SHT30;66893;44.316;0.092;2023-04-25T04:37:59;19.53;56.73
76785;SHT30;66893;44.316;0.092;2023-04-25T04:40:25;19.50;56.74
76785;SHT30;66893;44.316;0.092;2023-04-25T04:42:50;19.53;56.82
76785;SHT30;66893;44.316;0.092;2023-04-25T04:45:19;19.51;56.74
76785;SHT30;66893;44.316;0.092;2023-04-25T04:47:45;19.49;56.76
76785;SHT30;66893;44.316;0.092;2023-04-25T04:50:11;19.49;56.83
76785;SHT30;66893;44.316;0.092;2023-04-25T04:52:37;19.47;56.82
76785;SHT30;66893;44.316;0.092;2023-04-25T04:55:04;19.49;56.82
76785;SHT30;66893;44.316;0.092;2023-04-25T04:57:30;19.46;56.82
76785;SHT30;66893;44.316;0.092;2023-04-25T04:59:56;19.46;56.82
76785;SHT30;66893;44.316;0.092;2023-04-25T05:02:22;19.47;56.84
76785;SHT30;66893;44.316;0.092;2023-04-25T05:04:47;19.44;56.88
76785;SHT30;66893;44.316;0.092;2023-04-25T05:07:13;19.43;56.89
76785;SHT30;66893;44.316;0.092;2023-04-25T05:09:38;19.41;56.89
76785;SHT30;66893;44.316;0.092;2023-04-25T05:12:04;19.43;56.86
76785;SHT30;66893;44.316;0.092;2023-04-25T05:14:30;19.44;56.87
76785;SHT30;66893;44.316;0.092;2023-04-25T05:16:55;19.38;56.88
76785;SHT30;66893;44.316;0.092;2023-04-25T05:19:21;19.43;56.88
76785;SHT30;66893;44.316;0.092;2023-04-25T05:21:46;19.41;56.95
76785;SHT30;66893;44.316;0.092;2023-04-25T05:24:12;19.41;56.92
76785;SHT30;66893;44.316;0.092;2023-04-25T05:26:37;19.38;56.97
76785;SHT30;66893;44.316;0.092;2023-04-25T05:29:03;19.38;56.92
76785;SHT30;66893;44.316;0.092;2023-04-25T05:31:28;19.38;56.93
76785;SHT30;66893;44.316;0.092;2023-04-25T05:33:54;19.37;56.95
76785;SHT30;66893;44.316;0.092;2023-04-25T05:36:20;19.37;56.99
76785;SHT30;66893;44.316;0.092;2023-04-25T05:38:45;19.40;56.95
76785;SHT30;66893;44.316;0.092;2023-04-25T05:41:11;19.38;56.96
76785;SHT30;66893;44.316;0.092;2023-04-25T05:43:36;19.37;56.99
76785;SHT30;66893;44.316;0.092;2023-04-25T05:46:02;19.37;56.94
76785;SHT30;66893;44.316;0.092;2023-04-25T05:48:27;19.38;56.91
76785;SHT30;66893;44.316;0.092;2023-04-25T05:50:53;19.37;57.01
76785;SHT30;66893;44.316;0.092;2023-04-25T05:53:19;19.37;56.95
76785;SHT30;66893;44.316;0.092;2023-04-25T05:55:46;19.41;56.97
76785;SHT30;66893;44.316;0.092;2023-04-25T05:58:11;19.41;56.92
76785;SHT30;66893;44.316;0.092;2023-04-25T06:00:37;19.41;56.89
76785;SHT30;66893;44.316;0.092;2023-04-25T06:03:03;19.38;56.87
76785;SHT30;66893;44.316;0.092;2023-04-25T06:05:29;19.37;56.94
76785;SHT30;66893;44.316;0.092;2023-04-25T06:07:54;19.41;56.89
76785;SHT30;66893;44.316;0.092;2023-04-25T06:10:21;19.40;56.92
76785;SHT30;66893;44.316;0.092;2023-04-25T06:12:49;19.38;56.89
76785;SHT30;66893;44.316;0.092;2023-04-25T06:15:15;19.37;56.91
76785;SHT30;66893;44.316;0.092;2023-04-25T06:17:41;19.37;56.88
76785;SHT30;66893;44.316;0.092;2023-04-25T06:20:07;19.40;56.92
76785;SHT30;66893;44.316;0.092;2023-04-25T06:22:33;19.38;56.93
76785;SHT30;66893;44.316;0.092;2023-04-25T06:24:58;19.37;56.89
76785;SHT30;66893;44.316;0.092;2023-04-25T06:27:25;19.35;56.84
76785;SHT30;66893;44.316;0.092;2023-04-25T06:29:50;19.35;56.77
76785;SHT30;66893;44.316;0.092;2023-04-25T06:32:16;19.30;56.94
76785;SHT30;66893;44.316;0.092;2023-04-25T06:34:43;19.26;56.98
76785;SHT30;66893;44.316;0.092;2023-04-25T06:37:08;19.27;57.02
76785;SHT30;66893;44.316;0.092;2023-04-25T06:39:34;19.24;57.04
76785;SHT30;66893;44.316;0.092;2023-04-25T06:42:00;19.26;57.02
76785;SHT30;66893;44.316;0.092;2023-04-25T06:44:25;19.27;56.98
76785;SHT30;66893;44.316;0.092;2023-04-25T06:46:51;19.28;56.96
76785;SHT30;66893;44.316;0.092;2023-04-25T06:49:17;19.30;56.99
76785;SHT30;66893;44.316;0.092;2023-04-25T06:51:42;19.30;56.94
76785;SHT30;66893;44.316;0.092;2023-04-25T06:54:07;19.30;56.97
76785;SHT30;66893;44.316;0.092;2023-04-25T06:56:33;19.31;56.94
76785;SHT30;66893;44.316;0.092;2023-04-25T06:58:59;19.34;56.97
76785;SHT30;66893;44.316;0.092;2023-04-25T07:01:25;19.34;56.96
76785;SHT30;66893;44.316;0.092;2023-04-25T07:03:51;19.34;56.96
76785;SHT30;66893;44.316;0.092;2023-04-25T07:06:16;19.35;56.96
76785;SHT30;66893;44.316;0.092;2023-04-25T07:08:42;19.37;56.96
76785;SHT30;66893;44.316;0.092;2023-04-25T07:11:07;19.34;56.88
76785;SHT30;66893;44.316;0.092;2023-04-25T07:13:33;19.37;56.94
76785;SHT30;66893;44.316;0.092;2023-04-25T07:15:59;19.38;56.85
76785;SHT30;66893;44.316;0.092;2023-04-25T07:18:25;19.38;56.95
76785;SHT30;66893;44.316;0.092;2023-04-25T07:20:50;19.40;56.86
76785;SHT30;66893;44.316;0.092;2023-04-25T07:23:15;19.38;56.85
76785;SHT30;66893;44.316;0.092;2023-04-25T07:25:41;19.40;56.88
76785;SHT30;66893;44.316;0.092;2023-04-25T07:28:06;19.40;56.94
76785;SHT30;66893;44.316;0.092;2023-04-25T07:30:32;19.40;56.91
76785;SHT30;66893;44.316;0.092;2023-04-25T07:32:58;19.40;56.88
76785;SHT30;66893;44.316;0.092;2023-04-25T07:35:24;19.43;56.89
76785;SHT30;66893;44.316;0.092;2023-04-25T07:37:50;19.43;56.87
76785;SHT30;66893;44.316;0.092;2023-04-25T07:40:15;19.43;56.88
76785;SHT30;66893;44.316;0.092;2023-04-25T07:42:41;19.44;56.81
76785;SHT30;66893;44.316;0.092;2023-04-25T07:45:07;19.46;56.82
76785;SHT30;66893;44.316;0.092;2023-04-25T07:47:34;19.46;56.80
76785;SHT30;66893;44.316;0.092;2023-04-25T07:50:00;19.46;56.85
76785;SHT30;66893;44.316;0.092;2023-04-25T07:52:25;19.44;56.80
76785;SHT30;66893;44.316;0.092;2023-04-25T07:54:51;19.44;56.80
76785;SHT30;66893;44.316;0.092;2023-04-25T07:57:17;19.40;56.83
76785;SHT30;66893;44.316;0.092;2023-04-25T07:59:45;19.44;56.81
76785;SHT30;66893;44.316;0.092;2023-04-25T08:02:10;19.43;56.78
76785;SHT30;66893;44.316;0.092;2023-04-25T08:04:36;19.46;56.86
76785;SHT30;66893;44.316;0.092;2023-04-25T08:07:01;19.47;56.82
76785;SHT30;66893;44.316;0.092;2023-04-25T08:09:27;19.46;56.83
76785;SHT30;66893;44.316;0.092;2023-04-25T08:11:52;19.38;57.04
76785;SHT30;66893;44.316;0.092;2023-04-25T08:14:18;19.33;57.19
76785;SHT30;66893;44.316;0.092;2023-04-25T08:16:43;19.37;57.24
76785;SHT30;66893;44.316;0.092;2023-04-25T08:19:10;19.38;57.25
76785;SHT30;66893;44.316;0.092;2023-04-25T08:21:36;19.40;57.28
76785;SHT30;66893;44.316;0.092;2023-04-25T08:24:01;19.44;57.21
76785;SHT30;66893;44.316;0.092;2023-04-25T08:26:28;19.47;57.12
76785;SHT30;66893;44.316;0.092;2023-04-25T08:28:53;19.50;57.15
76785;SHT30;66893;44.316;0.092;2023-04-25T08:31:19;19.49;57.06
76785;SHT30;66893;44.316;0.092;2023-04-25T08:33:44;19.50;57.05
76785;SHT30;66893;44.316;0.092;2023-04-25T08:36:11;19.49;57.02
76785;SHT30;66893;44.316;0.092;2023-04-25T08:38:36;19.50;57.03
76785;SHT30;66893;44.316;0.092;2023-04-25T08:41:02;19.53;56.96
76785;SHT30;66893;44.316;0.092;2023-04-25T08:43:29;19.54;56.97
76785;SHT30;66893;44.316;0.092;2023-04-25T08:45:59;19.58;56.99
76785;SHT30;66893;44.316;0.092;2023-04-25T08:48:27;19.57;56.94
76785;SHT30;66893;44.316;0.092;2023-04-25T08:50:55;19.62;56.88
76785;SHT30;66893;44.316;0.092;2023-04-25T08:53:27;19.65;56.83
76785;SHT30;66893;44.316;0.092;2023-04-25T08:55:54;19.67;56.82
76785;SHT30;66893;44.316;0.092;2023-04-25T08:58:21;19.67;56.76
76785;SHT30;66893;44.316;0.092;2023-04-25T09:00:50;19.72;56.72
76785;SHT30;66893;44.316;0.092;2023-04-25T09:03:16;19.71;56.64
76785;SHT30;66893;44.316;0.092;2023-04-25T09:05:42;19.78;56.55
76785;SHT30;66893;44.316;0.092;2023-04-25T09:08:08;19.82;56.48
76785;SHT30;66893;44.316;0.092;2023-04-25T09:10:34;19.86;56.39
76785;SHT30;66893;44.316;0.092;2023-04-25T09:13:13;19.88;56.32
76785;SHT30;66893;44.316;0.092;2023-04-25T09:15:50;19.93;56.38
76785;SHT30;66893;44.316;0.092;2023-04-25T09:18:28;19.85;56.26
76785;SHT30;66893;44.316;0.092;2023-04-25T09:20:56;19.77;56.38
76785;SHT30;66893;44.316;0.092;2023-04-25T09:23:22;19.77;56.60
76785;SHT30;66893;44.316;0.092;2023-04-25T09:25:50;19.79;56.61
76785;SHT30;66893;44.316;0.092;2023-04-25T09:28:15;19.81;56.58
76785;SHT30;66893;44.316;0.092;2023-04-25T09:30:41;19.86;56.56
76785;SHT30;66893;44.316;0.092;2023-04-25T09:33:08;19.86;56.44
76785;SHT30;66893;44.316;0.092;2023-04-25T09:35:39;19.89;56.37
76785;SHT30;66893;44.316;0.092;2023-04-25T09:38:10;19.89;56.25
76785;SHT30;66893;44.316;0.092;2023-04-25T09:40:41;19.92;56.19
76785;SHT30;66893;44.316;0.092;2023-04-25T09:43:20;19.93;56.12
76785;SHT30;66893;44.316;0.092;2023-04-25T09:45:46;19.99;56.11
76785;SHT30;66893;44.316;0.092;2023-04-25T09:48:24;20.00;56.06
76785;SHT30;66893;44.316;0.092;2023-04-25T09:51:09;20.04;56.03
76785;SHT30;66893;44.316;0.092;2023-04-25T09:53:37;20.04;56.00
76785;SHT30;66893;44.316;0.092;2023-04-25T09:56:08;20.04;55.97
76785;SHT30;66893;44.316;0.092;2023-04-25T09:58:39;20.05;55.94
76785;SHT30;66893;44.316;0.092;2023-04-25T10:01:06;20.08;55.90
76785;SHT30;66893;44.316;0.092;2023-04-25T10:03:34;20.09;55.93
76785;SHT30;66893;44.316;0.092;2023-04-25T10:06:02;20.15;55.89
76785;SHT30;66893;44.316;0.092;2023-04-25T10:08:36;20.16;55.81
76785;SHT30;66893;44.316;0.092;2023-04-25T10:11:04;20.17;55.79
76785;SHT30;66893;44.316;0.092;2023-04-25T10:13:31;20.22;55.72
76785;SHT30;66893;44.316;0.092;2023-04-25T10:15:58;20.22;55.67
76785;SHT30;66893;44.316;0.092;2023-04-25T10:18:28;20.24;55.67
76785;SHT30;66893;44.316;0.092;2023-04-25T10:20:55;20.29;55.58
76785;SHT30;66893;44.316;0.092;2023-04-25T10:23:21;20.34;55.52
76785;SHT30;66893;44.316;0.092;2023-04-25T10:25:47;20.37;55.44
76785;SHT30;66893;44.316;0.092;2023-04-25T10:28:13;20.41;55.36
76785;SHT30;66893;44.316;0.092;2023-04-25T10:30:59;20.47;55.31
76785;SHT30;66893;44.316;0.092;2023-04-25T10:33:39;20.55;55.14
76785;SHT30;66893;44.316;0.092;2023-04-25T10:36:21;20.60;55.15
76785;SHT30;66893;44.316;0.092;2023-04-25T10:38:51;20.68;55.11
76785;SHT30;66893;44.316;0.092;2023-04-25T10:41:20;20.71;55.09
76785;SHT30;66893;44.316;0.092;2023-04-25T10:43:48;20.74;55.05
76785;SHT30;66893;44.316;0.092;2023-04-25T10:46:30;20.77;55.05
76785;SHT30;66893;44.316;0.092;2023-04-25T10:49:01;20.78;55.13
76785;SHT30;66893;44.316;0.092;2023-04-25T10:51:33;20.79;54.87
76785;SHT30;66893;44.316;0.092;2023-04-25T10:54:01;20.79;55.09
76785;SHT30;66893;44.316;0.092;2023-04-25T10:59:14;20.64;55.36
76785;SHT30;66893;44.316;0.092;2023-04-25T11:01:43;20.53;55.80
76785;SHT30;66893;44.316;0.092;2023-04-25T11:04:29;20.40;55.96
76785;SHT30;66893;44.316;0.092;2023-04-25T11:07:10;20.30;56.14
76785;SHT30;66893;44.316;0.092;2023-04-25T11:09:40;20.23;56.48
76785;SHT30;66893;44.316;0.092;2023-04-25T11:12:08;20.23;56.42
76785;SHT30;66893;44.316;0.092;2023-04-25T11:14:34;20.27;56.21
76785;SHT30;66893;44.316;0.092;2023-04-25T11:17:00;20.29;56.01
76785;SHT30;66893;44.316;0.092;2023-04-25T11:19:29;20.34;55.86
76785;SHT30;66893;44.316;0.092;2023-04-25T11:22:03;20.34;55.73
76785;SHT30;66893;44.316;0.092;2023-04-25T11:24:30;20.37;55.65
76785;SHT30;66893;44.316;0.092;2023-04-25T11:27:01;20.40;55.57
76785;SHT30;66893;44.316;0.092;2023-04-25T11:29:30;20.41;55.51
76785;SHT30;66893;44.316;0.092;2023-04-25T11:31:57;20.43;55.48
76785;SHT30;66893;44.316;0.092;2023-04-25T11:34:27;20.41;55.46
76785;SHT30;66893;44.316;0.092;2023-04-25T11:36:53;20.44;55.41
76785;SHT30;66893;44.316;0.092;2023-04-25T11:39:19;20.45;55.26
76785;SHT30;66893;44.316;0.092;2023-04-25T11:41:46;20.45;55.29
76785;SHT30;66893;44.316;0.092;2023-04-25T11:44:12;20.47;55.26
76785;SHT30;66893;44.316;0.092;2023-04-25T11:46:40;20.51;55.29
76785;SHT30;66893;44.316;0.092;2023-04-25T11:49:05;20.48;55.21
76785;SHT30;66893;44.316;0.092;2023-04-25T11:51:40;20.50;55.18
76785;SHT30;66893;44.316;0.092;2023-04-25T11:54:06;20.51;55.20
76785;SHT30;66893;44.316;0.092;2023-04-25T11:56:33;20.54;55.14
76785;SHT30;66893;44.316;0.092;2023-04-25T11:59:03;20.53;55.09
76785;SHT30;66893;44.316;0.092;2023-04-25T12:01:31;20.58;55.16
76785;SHT30;66893;44.316;0.092;2023-04-25T12:03:58;20.58;55.09
76785;SHT30;66893;44.316;0.092;2023-04-25T12:06:28;20.61;55.08
76785;SHT30;66893;44.316;0.092;2023-04-25T12:09:04;20.63;55.08
76785;SHT30;66893;44.316;0.092;2023-04-25T12:11:32;20.67;55.10
76785;SHT30;66893;44.316;0.092;2023-04-25T12:14:04;20.70;55.02
76785;SHT30;66893;44.316;0.092;2023-04-25T12:16:45;20.70;55.07
76785;SHT30;66893;44.316;0.092;2023-04-25T12:19:15;20.72;55.01
76785;SHT30;66893;44.316;0.092;2023-04-25T12:21:40;20.74;54.95
76785;SHT30;66893;44.316;0.092;2023-04-25T12:24:10;20.75;54.97
76785;SHT30;66893;44.316;0.092;2023-04-25T12:26:57;20.77;54.93
76785;SHT30;66893;44.316;0.092;2023-04-25T12:29:25;20.78;54.89
76785;SHT30;66893;44.316;0.092;2023-04-25T12:31:52;20.81;54.77
76785;SHT30;66893;44.316;0.092;2023-04-25T12:34:19;20.82;54.78
76785;SHT30;66893;44.316;0.092;2023-04-25T12:36:45;20.84;54.82
76785;SHT30;66893;44.316;0.092;2023-04-25T12:39:15;20.85;54.81
76785;SHT30;66893;44.316;0.092;2023-04-25T12:41:40;20.87;54.65
76785;SHT30;66893;44.316;0.092;2023-04-25T12:44:06;20.92;54.56
76785;SHT30;66893;44.316;0.092;2023-04-25T12:46:31;20.94;54.65
76785;SHT30;66893;44.316;0.092;2023-04-25T12:48:57;20.99;54.45
76785;SHT30;66893;44.316;0.092;2023-04-25T12:51:22;21.02;54.51
76785;SHT30;66893;44.316;0.092;2023-04-25T12:53:50;21.05;54.41
76785;SHT30;66893;44.316;0.092;2023-04-25T12:56:16;21.03;54.33
76785;SHT30;66893;44.316;0.092;2023-04-25T12:58:41;21.06;54.44
76785;SHT30;66893;44.316;0.092;2023-04-25T13:01:09;21.08;54.36
76785;SHT30;66893;44.316;0.092;2023-04-25T13:03:34;21.06;54.38
76785;SHT30;66893;44.316;0.092;2023-04-25T13:06:00;21.05;54.26
76785;SHT30;66893;44.316;0.092;2023-04-25T13:08:25;21.08;54.25
76785;SHT30;66893;44.316;0.092;2023-04-25T13:10:51;21.05;54.35
76785;SHT30;66893;44.316;0.092;2023-04-25T13:13:17;21.06;54.21
76785;SHT30;66893;44.316;0.092;2023-04-25T13:15:45;21.08;54.20
76785;SHT30;66893;44.316;0.092;2023-04-25T13:18:11;21.09;54.32
76785;SHT30;66893;44.316;0.092;2023-04-25T13:20:36;21.09;54.20
76785;SHT30;66893;44.316;0.092;2023-04-25T13:23:02;21.09;54.16
76785;SHT30;66893;44.316;0.092;2023-04-25T13:25:27;21.12;54.04
76785;SHT30;66893;44.316;0.092;2023-04-25T13:27:53;21.12;54.00
76785;SHT30;66893;44.316;0.092;2023-04-25T13:30:18;21.12;53.95
76785;SHT30;66893;44.316;0.092;2023-04-25T13:32:43;21.18;53.91
76785;SHT30;66893;44.316;0.092;2023-04-25T13:35:12;21.18;53.91
76785;SHT30;66893;44.316;0.092;2023-04-25T13:37:39;21.20;53.81
76785;SHT30;66893;44.316;0.092;2023-04-25T13:40:07;21.18;53.79
76785;SHT30;66893;44.316;0.092;2023-04-25T13:42:34;21.13;53.74
76785;SHT30;66893;44.316;0.092;2023-04-25T13:45:00;21.15;53.76
76785;SHT30;66893;44.316;0.092;2023-04-25T13:47:26;21.13;53.75
76785;SHT30;66893;44.316;0.092;2023-04-25T13:49:52;21.09;53.73
76785;SHT30;66893;44.316;0.092;2023-04-25T13:52:21;21.06;53.76
76785;SHT30;66893;44.316;0.092;2023-04-25T13:54:46;21.02;53.81
76785;SHT30;66893;44.316;0.092;2023-04-25T13:57:12;21.05;53.75
76785;SHT30;66893;44.316;0.092;2023-04-25T13:59:39;21.02;53.77
76785;SHT30;66893;44.316;0.092;2023-04-25T14:02:06;21.00;53.81
76785;SHT30;66893;44.316;0.092;2023-04-25T14:04:32;21.00;53.76
76785;SHT30;66893;44.316;0.092;2023-04-25T14:06:58;20.98;53.80
76785;SHT30;66893;44.316;0.092;2023-04-25T14:09:23;20.98;53.80
76785;SHT30;66893;44.316;0.092;2023-04-25T14:11:55;20.94;53.82
76785;SHT30;66893;44.316;0.092;2023-04-25T14:14:21;20.94;53.86
76785;SHT30;66893;44.316;0.092;2023-04-25T14:16:48;20.91;53.92
76785;SHT30;66893;44.316;0.092;2023-04-25T14:19:16;20.88;53.93
76785;SHT30;66893;44.316;0.092;2023-04-25T14:21:41;20.85;53.93
76785;SHT30;66893;44.316;0.092;2023-04-25T14:24:08;20.87;53.94
76785;SHT30;66893;44.316;0.092;2023-04-25T14:26:34;20.84;53.98
76785;SHT30;66893;44.316;0.092;2023-04-25T14:29:04;20.87;53.93
76785;SHT30;66893;44.316;0.092;2023-04-25T14:31:30;20.85;53.95
76785;SHT30;66893;44.316;0.092;2023-04-25T14:33:55;20.87;53.95
76785;SHT30;66893;44.316;0.092;2023-04-25T14:36:21;20.87;53.97
76785;SHT30;66893;44.316;0.092;2023-04-25T14:38:46;20.85;53.95
76785;SHT30;66893;44.316;0.092;2023-04-25T14:41:12;20.87;53.96
76785;SHT30;66893;44.316;0.092;2023-04-25T14:43:37;20.87;53.92
76785;SHT30;66893;44.316;0.092;2023-04-25T14:46:05;20.87;53.94
76785;SHT30;66893;44.316;0.092;2023-04-25T14:48:31;20.87;53.95
76785;SHT30;66893;44.316;0.092;2023-04-25T14:50:57;20.87;53.94
76785;SHT30;66893;44.316;0.092;2023-04-25T14:53:23;20.88;53.93
76785;SHT30;66893;44.316;0.092;2023-04-25T14:55:48;20.91;53.90
76785;SHT30;66893;44.316;0.092;2023-04-25T14:58:14;20.89;53.90
76785;SHT30;66893;44.316;0.092;2023-04-25T15:00:40;20.88;53.88
76785;SHT30;66893;44.316;0.092;2023-04-25T15:03:05;20.92;53.91
76785;SHT30;66893;44.316;0.092;2023-04-25T15:05:34;20.92;53.90
76785;SHT30;66893;44.316;0.092;2023-04-25T15:07:59;20.94;53.85
76785;SHT30;66893;44.316;0.092;2023-04-25T15:10:25;20.94;53.88
76785;SHT30;66893;44.316;0.092;2023-04-25T15:12:51;20.96;53.88
76785;SHT30;66893;44.316;0.092;2023-04-25T15:15:18;20.96;53.86
76785;SHT30;66893;44.316;0.092;2023-04-25T15:17:44;20.95;53.83
76785;SHT30;66893;44.316;0.092;2023-04-25T15:20:11;20.96;53.82
76785;SHT30;66893;44.316;0.092;2023-04-25T15:22:42;20.96;53.86
76785;SHT30;66893;44.316;0.092;2023-04-25T15:25:08;20.98;53.84
76785;SHT30;66893;44.316;0.092;2023-04-25T15:27:35;20.94;53.84
76785;SHT30;66893;44.316;0.092;2023-04-25T15:30:06;20.94;53.84